createdAt,value
2022-08-21T00:01:14.661Z,20.62
2022-08-21T00:03:46.669Z,20.69
2022-08-21T00:06:15.660Z,20.74
2022-08-21T00:08:44.771Z,20.76
2022-08-21T00:11:14.052Z,20.76
2022-08-21T00:13:43.945Z,20.79
2022-08-21T00:16:14.207Z,20.83
2022-08-21T00:18:45.134Z,20.83
2022-08-21T00:21:16.049Z,20.83
2022-08-21T00:23:47.286Z,20.83
2022-08-21T00:26:19.596Z,20.80
2022-08-21T00:28:50.235Z,20.77
2022-08-21T00:31:19.468Z,20.76
2022-08-21T00:33:50.016Z,20.77
2022-08-21T00:36:19.935Z,20.80
2022-08-21T00:38:51.697Z,20.82
2022-08-21T00:41:38.616Z,20.86
2022-08-21T00:44:12.183Z,20.87
2022-08-21T00:46:44.304Z,20.90
2022-08-21T00:49:14.574Z,20.92
2022-08-21T00:51:54.487Z,20.94
2022-08-21T00:54:27.327Z,20.96
2022-08-21T00:57:00.722Z,20.97
2022-08-21T00:59:34.976Z,20.98
2022-08-21T01:02:10.779Z,20.97
2022-08-21T01:04:43.921Z,20.92
2022-08-21T01:07:14.174Z,20.89
2022-08-21T01:09:44.710Z,20.78
2022-08-21T01:12:14.573Z,20.73
2022-08-21T01:14:45.658Z,20.67
2022-08-21T01:17:18.584Z,20.65
2022-08-21T01:19:50.525Z,20.63
2022-08-21T01:22:20.737Z,20.64
2022-08-21T01:24:50.499Z,20.62
2022-08-21T01:27:19.147Z,20.64
2022-08-21T01:29:59.811Z,20.63
2022-08-21T01:32:29.794Z,20.63
2022-08-21T01:34:59.964Z,20.63
2022-08-21T01:37:30.532Z,20.64
2022-08-21T01:40:00.128Z,20.66
2022-08-21T01:42:32.296Z,20.64
2022-08-21T01:45:04.251Z,20.63
2022-08-21T01:47:37.724Z,20.60
2022-08-21T01:50:11.414Z,20.52
2022-08-21T01:52:41.737Z,20.41
2022-08-21T01:55:13.022Z,20.39
2022-08-21T01:57:45.561Z,20.37
2022-08-21T02:00:24.091Z,20.31
2022-08-21T02:02:53.583Z,20.36
2022-08-21T02:05:22.699Z,20.41
2022-08-21T02:07:54.531Z,20.46
2022-08-21T02:10:30.004Z,20.53
2022-08-21T02:13:02.027Z,20.58
2022-08-21T02:15:33.636Z,20.54
2022-08-21T02:18:06.269Z,20.44
2022-08-21T02:20:39.832Z,20.36
2022-08-21T02:23:10.849Z,20.27
2022-08-21T02:25:39.934Z,20.15
2022-08-21T02:28:12.183Z,19.95
2022-08-21T02:30:45.267Z,19.78
2022-08-21T02:33:14.847Z,19.64
2022-08-21T02:35:45.370Z,19.49
2022-08-21T02:38:18.938Z,19.41
2022-08-21T02:40:50.916Z,19.36
2022-08-21T02:43:23.143Z,19.41
2022-08-21T02:45:54.670Z,19.46
2022-08-21T02:48:27.073Z,19.47
2022-08-21T02:50:59.148Z,19.42
2022-08-21T02:53:29.606Z,19.36
2022-08-21T02:56:02.591Z,19.35
2022-08-21T02:58:39.858Z,19.31
2022-08-21T03:01:12.186Z,19.29
2022-08-21T03:03:44.567Z,19.22
2022-08-21T03:06:16.862Z,19.16
2022-08-21T03:08:46.398Z,19.01
2022-08-21T03:11:17.451Z,18.95
2022-08-21T03:13:45.963Z,19.01
2022-08-21T03:16:16.200Z,19.03
2022-08-21T03:18:46.738Z,19.06
2022-08-21T03:21:15.276Z,19.16
2022-08-21T03:23:44.218Z,19.20
2022-08-21T03:26:12.837Z,19.23
2022-08-21T03:28:41.209Z,19.29
2022-08-21T03:31:11.623Z,19.32
2022-08-21T03:33:41.591Z,19.35
2022-08-21T03:36:11.204Z,19.39
2022-08-21T03:38:40.643Z,19.44
2022-08-21T03:41:09.971Z,19.46
2022-08-21T03:43:39.739Z,19.46
2022-08-21T03:46:08.540Z,19.41
2022-08-21T03:48:38.523Z,19.39
2022-08-21T03:51:08.699Z,19.30
2022-08-21T03:53:40.287Z,19.07
2022-08-21T03:56:09.137Z,18.93
2022-08-21T03:58:39.511Z,18.85
2022-08-21T04:01:09.145Z,18.79
2022-08-21T04:03:39.173Z,18.70
2022-08-21T04:06:10.971Z,18.70
2022-08-21T04:08:41.665Z,18.69
2022-08-21T04:11:13.309Z,18.75
2022-08-21T04:13:50.178Z,18.81
2022-08-21T04:16:19.457Z,18.89
2022-08-21T04:18:48.738Z,18.94
2022-08-21T04:21:18.048Z,18.97
2022-08-21T04:23:49.318Z,19.00
2022-08-21T04:26:18.426Z,19.02
2022-08-21T04:28:47.844Z,19.05
2022-08-21T04:31:16.859Z,19.07
2022-08-21T04:33:46.243Z,19.10
2022-08-21T04:36:14.781Z,19.11
2022-08-21T04:38:44.622Z,19.05
2022-08-21T04:41:15.839Z,19.02
2022-08-21T04:43:44.853Z,19.10
2022-08-21T04:46:14.066Z,19.17
2022-08-21T04:48:42.861Z,19.16
2022-08-21T04:51:19.617Z,19.15
2022-08-21T04:53:57.563Z,19.20
2022-08-21T04:56:37.574Z,19.31
2022-08-21T04:59:32.234Z,19.33
2022-08-21T05:02:02.853Z,19.34
2022-08-21T05:04:35.430Z,19.34
2022-08-21T05:07:08.514Z,19.30
2022-08-21T05:09:39.469Z,19.32
2022-08-21T05:12:09.353Z,19.39
2022-08-21T05:14:39.260Z,19.39
2022-08-21T05:17:08.298Z,19.35
2022-08-21T05:19:37.245Z,19.34
2022-08-21T05:22:05.877Z,19.36
2022-08-21T05:24:34.925Z,19.41
2022-08-21T05:27:03.767Z,19.43
2022-08-21T05:29:33.396Z,19.43
2022-08-21T05:32:02.942Z,19.42
2022-08-21T05:34:31.616Z,19.43
2022-08-21T05:37:05.594Z,19.44
2022-08-21T05:40:20.257Z,19.44
2022-08-21T05:42:25.757Z,19.45
2022-08-21T05:44:55.715Z,19.47
2022-08-21T05:47:24.809Z,19.48
2022-08-21T05:49:53.395Z,19.49
2022-08-21T05:52:23.478Z,19.49
2022-08-21T05:54:55.008Z,19.50
2022-08-21T05:57:25.349Z,19.53
2022-08-21T05:59:54.299Z,19.56
2022-08-21T06:02:24.292Z,19.56
2022-08-21T06:04:53.345Z,19.52
2022-08-21T06:07:22.153Z,19.38
2022-08-21T06:09:53.977Z,19.27
2022-08-21T06:12:23.210Z,19.17
2022-08-21T06:14:53.306Z,19.13
2022-08-21T06:17:24.402Z,19.16
2022-08-21T06:19:54.268Z,19.18
2022-08-21T06:22:23.224Z,19.12
2022-08-21T06:24:53.557Z,19.07
2022-08-21T06:27:26.081Z,19.11
2022-08-21T06:29:58.676Z,19.15
2022-08-21T06:32:27.215Z,19.19
2022-08-21T06:34:55.778Z,19.20
2022-08-21T06:37:26.650Z,19.20
2022-08-21T06:39:56.097Z,19.23
2022-08-21T06:42:27.915Z,19.27
2022-08-21T06:44:58.479Z,19.28
2022-08-21T06:47:28.480Z,19.23
2022-08-21T06:49:57.281Z,19.20
2022-08-21T06:52:26.831Z,19.22
2022-08-21T06:54:55.631Z,19.23
2022-08-21T06:57:26.973Z,19.26
2022-08-21T06:59:55.552Z,19.27
2022-08-21T07:02:24.061Z,19.26
2022-08-21T07:04:54.006Z,19.22
2022-08-21T07:07:24.075Z,19.23
2022-08-21T07:09:54.842Z,19.32
2022-08-21T07:12:23.365Z,19.43
2022-08-21T07:14:53.229Z,19.49
2022-08-21T07:17:22.188Z,19.55
2022-08-21T07:19:52.880Z,19.61
2022-08-21T07:22:22.457Z,19.72
2022-08-21T07:24:52.572Z,19.78
2022-08-21T07:27:22.181Z,19.83
2022-08-21T07:29:51.312Z,19.88
2022-08-21T07:32:21.486Z,19.96
2022-08-21T07:34:51.892Z,20.03
2022-08-21T07:37:21.903Z,20.06
2022-08-21T07:39:52.785Z,20.19
2022-08-21T07:42:25.367Z,20.33
2022-08-21T07:44:57.888Z,20.44
2022-08-21T07:47:42.571Z,20.57
2022-08-21T07:50:13.798Z,20.72
2022-08-21T09:36:49.850Z,24.61
2022-08-21T09:39:28.507Z,24.59
2022-08-21T09:42:03.856Z,24.53
2022-08-21T09:44:41.960Z,24.59
2022-08-21T09:47:16.275Z,24.74
2022-08-21T09:49:44.604Z,24.92
2022-08-21T09:52:32.161Z,24.84
2022-08-21T09:55:02.145Z,25.10
2022-08-21T09:57:50.631Z,25.48
2022-08-21T10:00:30.942Z,25.71
2022-08-21T10:03:22.050Z,25.74
2022-08-21T10:06:09.263Z,25.89
2022-08-21T10:08:40.564Z,26.00
2022-08-21T10:11:14.528Z,26.09
2022-08-21T10:13:57.927Z,26.09
2022-08-21T10:16:34.542Z,26.27
2022-08-21T10:19:24.997Z,26.29
2022-08-21T10:22:19.812Z,26.41
2022-08-21T10:24:57.598Z,26.62
2022-08-21T10:27:39.019Z,26.84
2022-08-21T10:30:20.663Z,27.25
2022-08-21T10:33:20.352Z,27.83
2022-08-21T10:36:27.770Z,28.68
2022-08-21T10:42:05.475Z,29.30
2022-08-21T10:44:47.518Z,29.25
2022-08-21T10:47:35.945Z,29.10
2022-08-21T10:50:28.135Z,28.76
2022-08-21T10:53:28.099Z,28.66
2022-08-21T10:56:18.345Z,29.25
2022-08-21T10:59:01.382Z,29.38
2022-08-21T11:01:40.064Z,29.14
2022-08-21T11:04:21.908Z,28.84
2022-08-21T11:07:00.342Z,28.76
2022-08-21T11:09:35.840Z,29.03
2022-08-21T11:12:42.964Z,29.26
2022-08-21T11:15:29.093Z,28.95
2022-08-21T11:18:26.486Z,29.02
2022-08-21T11:21:02.856Z,28.89
2022-08-21T11:23:48.955Z,28.72
2022-08-21T11:26:43.183Z,28.64
2022-08-21T11:29:20.583Z,28.64
2022-08-21T11:32:16.307Z,28.49
2022-08-21T11:34:58.528Z,28.03
2022-08-21T11:37:48.626Z,27.81
2022-08-21T11:40:41.249Z,27.63
2022-08-21T11:43:44.289Z,27.50
2022-08-21T11:46:41.442Z,27.19
2022-08-21T11:49:21.418Z,26.92
2022-08-21T11:52:21.887Z,26.76
2022-08-21T11:55:13.526Z,26.55
2022-08-21T11:57:56.012Z,26.47
2022-08-21T12:00:51.752Z,26.49
2022-08-21T12:03:35.601Z,26.26
2022-08-21T12:06:12.030Z,26.16
2022-08-21T12:08:47.428Z,26.02
2022-08-21T12:11:18.702Z,25.83
2022-08-21T12:14:19.435Z,25.60
2022-08-21T12:16:51.064Z,25.47
2022-08-21T12:19:26.539Z,25.34
2022-08-21T12:22:14.885Z,25.19
2022-08-21T12:24:45.318Z,25.06
2022-08-21T12:27:31.892Z,25.03
2022-08-21T12:30:04.812Z,24.88
2022-08-21T12:32:42.624Z,24.81
2022-08-21T12:35:25.412Z,24.80
2022-08-21T12:38:06.964Z,24.79
2022-08-21T12:40:44.483Z,24.81
2022-08-21T12:43:31.789Z,24.87
2022-08-21T12:46:02.752Z,24.90
2022-08-21T12:48:46.528Z,24.93
2022-08-21T12:51:24.558Z,24.95
2022-08-21T12:53:58.511Z,24.92
2022-08-21T12:56:32.081Z,24.84
2022-08-21T12:59:09.472Z,24.81
2022-08-21T13:01:46.684Z,24.70
2022-08-21T13:04:23.534Z,24.63
2022-08-21T13:06:55.578Z,24.57
2022-08-21T13:09:33.145Z,24.53
2022-08-21T13:12:03.782Z,24.49
2022-08-21T13:14:45.976Z,24.43
2022-08-21T13:17:23.568Z,24.36
2022-08-21T13:20:04.071Z,24.29
2022-08-21T13:22:40.599Z,24.39
2022-08-21T13:25:16.782Z,24.66
2022-08-21T13:28:12.616Z,24.98
2022-08-21T13:30:47.457Z,25.25
2022-08-21T13:33:19.976Z,25.43
2022-08-21T13:36:21.074Z,25.53
2022-08-21T13:38:54.702Z,25.60
2022-08-21T13:41:28.659Z,25.62
2022-08-21T13:44:02.901Z,25.62
2022-08-21T13:46:35.612Z,25.69
2022-08-21T13:49:08.767Z,25.72
2022-08-21T13:51:38.337Z,25.81
2022-08-21T13:54:23.855Z,26.06
2022-08-21T13:56:52.398Z,26.20
2022-08-21T13:59:39.922Z,26.33
2022-08-21T14:02:19.488Z,26.33
2022-08-21T14:05:01.904Z,26.15
2022-08-21T14:07:36.800Z,25.92
2022-08-21T14:10:16.563Z,25.95
2022-08-21T14:12:48.515Z,25.95
2022-08-21T14:15:21.077Z,25.77
2022-08-21T14:17:50.198Z,25.45
2022-08-21T14:20:32.206Z,25.22
2022-08-21T14:23:01.447Z,25.15
2022-08-21T14:25:43.647Z,25.10
2022-08-21T14:28:19.592Z,25.10
2022-08-21T14:30:51.505Z,25.21
2022-08-21T14:33:34.030Z,25.28
2022-08-21T14:36:03.847Z,25.31
2022-08-21T14:38:33.549Z,25.32
2022-08-21T14:41:14.466Z,25.32
2022-08-21T14:43:45.656Z,25.38
2022-08-21T14:46:30.539Z,25.40
2022-08-21T14:49:00.250Z,25.39
2022-08-21T14:51:29.933Z,25.32
2022-08-21T14:53:58.990Z,25.25
2022-08-21T14:56:30.731Z,25.18
2022-08-21T14:59:09.103Z,25.07
2022-08-21T15:01:40.403Z,25.07
2022-08-21T15:04:10.607Z,25.04
2022-08-21T15:06:40.777Z,24.97
2022-08-21T15:09:09.818Z,24.90
2022-08-21T15:11:41.990Z,24.86
2022-08-21T15:14:27.013Z,24.72
2022-08-21T15:16:56.337Z,24.61
2022-08-21T15:19:26.290Z,24.52
2022-08-21T15:21:55.161Z,24.49
2022-08-21T15:24:27.195Z,24.41
2022-08-21T15:26:56.583Z,24.32
2022-08-21T15:29:34.530Z,24.26
2022-08-21T15:32:19.239Z,24.19
2022-08-21T15:34:48.880Z,24.10
2022-08-21T15:37:17.493Z,24.05
2022-08-21T15:39:52.212Z,23.95
2022-08-21T15:42:24.017Z,23.86
2022-08-21T15:44:55.104Z,23.77
2022-08-21T15:47:29.800Z,23.69
2022-08-21T15:49:58.631Z,23.61
2022-08-21T15:52:27.820Z,23.56
2022-08-21T15:54:57.237Z,23.59
2022-08-21T15:57:28.538Z,23.55
2022-08-21T16:00:12.998Z,23.47
2022-08-21T16:02:46.154Z,23.38
2022-08-21T16:05:18.292Z,23.33
2022-08-21T16:07:48.447Z,23.27
2022-08-21T16:10:20.398Z,23.22
2022-08-21T16:12:53.520Z,23.16
2022-08-21T16:15:22.312Z,23.11
2022-08-21T16:17:53.215Z,23.06
2022-08-21T16:20:28.360Z,23.06
2022-08-21T16:22:58.726Z,23.05
2022-08-21T16:25:27.772Z,23.00
2022-08-21T16:28:02.716Z,22.99
2022-08-21T16:30:32.029Z,22.92
2022-08-21T16:33:03.329Z,22.90
2022-08-21T16:35:33.745Z,22.89
2022-08-21T16:38:02.524Z,22.85
2022-08-21T16:40:31.007Z,22.85
2022-08-21T16:43:01.133Z,22.82
2022-08-21T16:45:33.445Z,22.75
2022-08-21T16:48:04.723Z,22.69
2022-08-21T16:50:36.377Z,22.61
2022-08-21T16:53:07.053Z,22.53
2022-08-21T16:55:37.998Z,22.49
2022-08-21T16:58:30.276Z,22.51
2022-08-21T17:01:05.191Z,22.53
2022-08-21T17:03:39.422Z,22.55
2022-08-21T17:06:10.140Z,22.50
2022-08-21T17:08:42.197Z,22.48
2022-08-21T17:11:46.236Z,22.40
2022-08-21T17:14:23.853Z,22.34
2022-08-21T17:16:56.098Z,22.23
2022-08-21T17:19:28.580Z,22.11
2022-08-21T17:21:57.365Z,22.05
2022-08-21T17:24:27.107Z,22.01
2022-08-21T17:26:56.484Z,21.97
2022-08-21T17:29:30.243Z,21.97
2022-08-21T17:31:59.332Z,21.93
2022-08-21T17:34:31.831Z,21.92
2022-08-21T17:37:02.264Z,21.90
2022-08-21T17:39:30.787Z,21.87
2022-08-21T17:42:04.660Z,21.86
2022-08-21T17:44:33.492Z,21.82
2022-08-21T17:47:02.424Z,21.78
2022-08-21T17:49:31.589Z,21.70
2022-08-21T17:52:01.119Z,21.64
2022-08-21T17:54:30.232Z,21.58
2022-08-21T17:56:58.787Z,21.49
2022-08-21T17:59:28.271Z,21.40
2022-08-21T18:02:02.672Z,21.33
2022-08-21T18:04:33.941Z,21.29
2022-08-21T18:07:04.202Z,21.19
2022-08-21T18:09:32.867Z,21.16
2022-08-21T18:12:01.699Z,21.10
2022-08-21T18:14:34.481Z,21.04
2022-08-21T18:17:09.577Z,21.02
2022-08-21T18:19:44.102Z,20.93
2022-08-21T18:22:18.762Z,20.81
2022-08-21T18:24:47.258Z,20.73
2022-08-21T18:27:17.608Z,20.66
2022-08-21T18:29:48.782Z,20.61
2022-08-21T18:32:30.689Z,20.50
2022-08-21T18:35:06.393Z,20.35
2022-08-21T18:37:37.159Z,20.23
2022-08-21T18:40:09.032Z,20.15
2022-08-21T18:42:58.544Z,19.99
2022-08-21T18:45:28.939Z,19.98
2022-08-21T18:48:02.163Z,20.00
2022-08-21T18:50:30.678Z,20.05
2022-08-21T18:52:59.620Z,20.07
2022-08-21T18:55:29.825Z,20.03
2022-08-21T18:57:59.337Z,20.00
2022-08-21T19:00:36.003Z,19.92
2022-08-21T19:03:08.077Z,19.86
2022-08-21T19:05:36.860Z,19.89
2022-08-21T19:08:09.629Z,19.93
2022-08-21T19:10:45.659Z,19.92
2022-08-21T19:13:18.332Z,19.89
2022-08-21T19:15:50.436Z,19.85
2022-08-21T19:18:28.051Z,19.80
2022-08-21T19:20:57.508Z,19.77
2022-08-21T19:23:29.668Z,19.76
2022-08-21T19:26:05.092Z,19.79
2022-08-21T19:28:41.147Z,19.81
2022-08-21T19:31:19.651Z,19.82
2022-08-21T19:34:01.597Z,19.83
2022-08-21T19:36:32.779Z,19.84
2022-08-21T19:39:01.623Z,19.84
2022-08-21T19:41:42.731Z,19.87
2022-08-21T19:44:18.011Z,19.88
2022-08-21T19:46:52.959Z,19.84
2022-08-21T19:49:29.224Z,19.82
2022-08-21T19:54:53.412Z,19.74
2022-08-21T19:57:24.340Z,19.73
2022-08-21T19:59:53.218Z,19.72
2022-08-21T20:02:25.352Z,19.69
2022-08-21T20:04:56.750Z,19.65
2022-08-21T20:07:26.957Z,19.64
2022-08-21T20:09:57.163Z,19.59
2022-08-21T20:12:30.922Z,19.56
2022-08-21T20:15:00.678Z,19.56
2022-08-21T20:17:30.452Z,19.50
2022-08-21T20:20:00.351Z,19.47
2022-08-21T20:22:30.129Z,19.44
2022-08-21T20:24:58.687Z,19.43
2022-08-21T20:27:31.084Z,19.44
2022-08-21T20:30:07.155Z,19.46
2022-08-21T20:32:36.074Z,19.47
2022-08-21T20:35:12.424Z,19.52
2022-08-21T20:37:42.551Z,19.60
2022-08-21T20:40:13.889Z,19.61
2022-08-21T20:42:47.561Z,19.63
2022-08-21T20:45:26.513Z,19.63
2022-08-21T20:48:01.788Z,19.59
2022-08-21T20:50:34.892Z,19.47
2022-08-21T20:53:27.657Z,19.42
2022-08-21T20:56:21.282Z,19.43
2022-08-21T20:59:01.768Z,19.43
2022-08-21T21:01:34.704Z,19.42
2022-08-21T21:04:24.801Z,19.44
2022-08-21T21:06:58.974Z,19.45
2022-08-21T21:12:40.512Z,19.31
2022-08-21T21:15:27.945Z,19.30
2022-08-21T21:18:02.462Z,19.31
2022-08-21T21:20:38.422Z,19.36
2022-08-21T21:23:29.390Z,19.43
2022-08-21T21:26:06.457Z,19.48
2022-08-21T21:29:01.507Z,19.50
2022-08-21T21:31:33.117Z,19.48
2022-08-21T21:34:01.768Z,19.45
2022-08-21T21:36:43.882Z,19.42
2022-08-21T21:39:38.456Z,19.42
2022-08-21T21:45:30.019Z,19.38
2022-08-21T21:48:09.356Z,19.34
2022-08-21T21:51:01.079Z,19.26
2022-08-21T21:54:13.564Z,19.21
2022-08-21T21:57:00.686Z,19.05
2022-08-21T21:59:32.181Z,18.92
2022-08-21T22:02:09.626Z,18.81
2022-08-21T22:05:00.203Z,18.78
2022-08-21T22:07:47.608Z,18.82
2022-08-21T22:10:30.653Z,18.87
2022-08-21T22:13:26.257Z,18.85
2022-08-21T22:15:56.478Z,18.82
2022-08-21T22:18:33.744Z,18.81
2022-08-21T22:21:10.687Z,18.79
2022-08-21T22:23:52.854Z,18.76
2022-08-21T22:26:33.921Z,18.67
2022-08-21T22:29:05.621Z,18.57
2022-08-21T22:31:35.496Z,18.44
2022-08-21T22:34:19.423Z,18.41
2022-08-21T22:37:19.462Z,18.44
2022-08-21T22:39:54.770Z,18.44
2022-08-21T22:42:27.626Z,18.44
2022-08-21T22:45:02.141Z,18.44
2022-08-21T22:47:37.478Z,18.41
2022-08-21T22:50:26.213Z,18.37
2022-08-21T22:53:12.263Z,18.33
2022-08-21T22:55:55.475Z,18.25
2022-08-21T22:58:40.968Z,18.24
2022-08-21T23:01:21.577Z,18.27
2022-08-21T23:03:57.177Z,18.30
2022-08-21T23:06:28.881Z,18.32
2022-08-21T23:11:51.007Z,18.33
2022-08-21T23:14:20.020Z,18.32
2022-08-21T23:16:54.708Z,18.25
2022-08-21T23:19:57.031Z,18.19
2022-08-21T23:22:54.464Z,18.23
2022-08-21T23:25:54.992Z,18.26
2022-08-21T23:28:32.031Z,18.30
2022-08-21T23:31:26.849Z,18.37
2022-08-21T23:34:15.868Z,18.42
2022-08-21T23:37:13.046Z,18.42
2022-08-21T23:39:55.230Z,18.47
2022-08-21T23:42:45.592Z,18.53
2022-08-21T23:45:38.090Z,18.56
2022-08-21T23:48:29.528Z,18.55
2022-08-21T23:51:09.465Z,18.58
2022-08-21T23:54:22.683Z,18.58
2022-08-21T23:57:12.398Z,18.54
2022-08-21T23:59:43.489Z,18.49
